createdAt,value
2019-01-22T00:00:29.491Z,36.50
2019-01-22T00:01:29.472Z,35.70
2019-01-22T00:02:29.453Z,37.60
2019-01-22T00:03:29.435Z,38.20
2019-01-22T00:04:29.417Z,39.40
2019-01-22T00:05:29.404Z,37.50
2019-01-22T00:06:29.382Z,38.50
2019-01-22T00:07:29.366Z,39.60
2019-01-22T00:08:29.346Z,39.80
2019-01-22T00:09:29.330Z,36.60
2019-01-22T00:10:29.310Z,37.40
2019-01-22T00:11:29.294Z,38.40
2019-01-22T00:12:29.275Z,37.30
2019-01-22T00:13:29.259Z,38.30
2019-01-22T00:14:29.238Z,39.60
2019-01-22T00:15:29.221Z,39.10
2019-01-22T00:16:29.202Z,38.30
2019-01-22T00:17:29.184Z,37.20
2019-01-22T00:18:29.169Z,37.30
2019-01-22T00:19:29.153Z,37.90
2019-01-22T00:20:29.129Z,38.80
2019-01-22T00:21:29.113Z,37.50
2019-01-22T00:22:29.095Z,37.30
2019-01-22T00:23:29.076Z,38.30
2019-01-22T00:24:29.057Z,37.50
2019-01-22T00:25:29.043Z,37.30
2019-01-22T00:26:29.025Z,37.30
2019-01-22T00:27:29.006Z,36.00
2019-01-22T00:28:28.987Z,36.10
2019-01-22T00:29:28.970Z,39.80
2019-01-22T00:30:28.954Z,37.70
2019-01-22T00:31:28.935Z,36.90
2019-01-22T00:32:28.917Z,36.20
2019-01-22T00:33:28.900Z,37.50
2019-01-22T00:34:28.880Z,38.40
2019-01-22T00:35:28.861Z,35.90
2019-01-22T00:36:28.844Z,37.90
2019-01-22T00:37:28.826Z,38.20
2019-01-22T00:38:28.807Z,39.60
2019-01-22T00:39:28.789Z,36.20
2019-01-22T00:40:28.776Z,37.40
2019-01-22T00:41:28.756Z,38.70
2019-01-22T00:42:28.737Z,37.70
2019-01-22T00:43:28.718Z,38.50
2019-01-22T00:44:28.704Z,37.30
2019-01-22T00:45:28.682Z,37.30
2019-01-22T00:46:28.666Z,39.40
2019-01-22T00:47:28.647Z,39.30
2019-01-22T00:48:28.629Z,36.40
2019-01-22T00:49:28.614Z,36.60
2019-01-22T00:50:28.593Z,36.40
2019-01-22T00:51:28.577Z,38.20
2019-01-22T00:52:28.559Z,37.70
2019-01-22T00:53:28.540Z,38.20
2019-01-22T00:54:28.522Z,37.70
2019-01-22T00:55:28.504Z,38.50
2019-01-22T00:56:28.487Z,36.70
2019-01-22T00:57:28.469Z,36.20
2019-01-22T00:58:28.452Z,37.30
2019-01-22T00:59:28.434Z,38.00
2019-01-22T01:00:28.414Z,38.60
2019-01-22T01:01:28.396Z,38.00
2019-01-22T01:02:28.379Z,38.70
2019-01-22T01:03:28.361Z,39.00
2019-01-22T01:04:28.345Z,37.90
2019-01-22T01:05:28.325Z,36.10
2019-01-22T01:06:28.310Z,37.00
2019-01-22T01:07:28.293Z,39.50
2019-01-22T01:08:28.275Z,40.30
2019-01-22T01:09:28.257Z,36.50
2019-01-22T01:10:28.239Z,38.10
2019-01-22T01:11:28.224Z,37.50
2019-01-22T01:12:28.204Z,36.60
2019-01-22T01:13:28.185Z,37.50
2019-01-22T01:14:28.167Z,38.50
2019-01-22T01:15:28.152Z,39.20
2019-01-22T01:16:28.131Z,38.30
2019-01-22T01:17:28.115Z,38.70
2019-01-22T01:18:28.097Z,36.90
2019-01-22T01:19:28.080Z,37.10
2019-01-22T01:20:28.063Z,38.50
2019-01-22T01:21:28.045Z,38.30
2019-01-22T01:22:28.025Z,38.40
2019-01-22T01:23:28.009Z,36.70
2019-01-22T01:24:27.993Z,38.20
2019-01-22T01:25:27.975Z,35.90
2019-01-22T01:26:27.956Z,38.50
2019-01-22T01:27:27.941Z,38.30
2019-01-22T01:28:27.925Z,37.70
2019-01-22T01:29:27.906Z,37.40
2019-01-22T01:30:27.888Z,38.70
2019-01-22T01:31:27.868Z,38.80
2019-01-22T01:32:27.849Z,38.40
2019-01-22T01:33:27.835Z,38.30
2019-01-22T01:34:27.816Z,40.40
2019-01-22T01:35:27.799Z,39.00
2019-01-22T01:36:27.781Z,40.90
2019-01-22T01:37:27.764Z,38.60
2019-01-22T01:38:27.746Z,39.80
2019-01-22T01:39:27.731Z,38.80
2019-01-22T01:40:27.711Z,37.20
2019-01-22T01:41:27.697Z,38.00
2019-01-22T01:42:27.678Z,35.90
2019-01-22T01:43:27.662Z,36.20
2019-01-22T01:44:27.642Z,35.70
2019-01-22T01:45:27.629Z,37.70
2019-01-22T01:46:27.607Z,35.20
2019-01-22T01:47:27.590Z,37.30
2019-01-22T01:48:27.576Z,35.90
2019-01-22T01:49:27.557Z,35.00
2019-01-22T01:50:27.538Z,35.90
2019-01-22T01:51:27.523Z,37.60
2019-01-22T01:52:27.503Z,36.40
2019-01-22T01:53:27.486Z,35.30
2019-01-22T01:54:27.473Z,35.80
2019-01-22T01:55:27.453Z,36.80
2019-01-22T01:56:27.434Z,36.80
2019-01-22T01:57:27.416Z,35.80
2019-01-22T01:58:27.400Z,37.60
2019-01-22T01:59:27.382Z,36.00
2019-01-22T02:00:27.364Z,35.50
2019-01-22T02:01:27.347Z,35.50
2019-01-22T02:02:27.330Z,34.80
2019-01-22T02:03:27.311Z,33.50
2019-01-22T02:04:27.296Z,34.90
2019-01-22T02:05:27.279Z,34.80
2019-01-22T02:06:27.261Z,37.50
2019-01-22T02:07:27.244Z,37.10
2019-01-22T02:08:27.224Z,38.50
2019-01-22T02:09:27.210Z,37.20
2019-01-22T02:10:27.192Z,36.90
2019-01-22T02:11:27.174Z,35.50
2019-01-22T02:12:27.157Z,35.10
2019-01-22T02:13:27.139Z,33.70
2019-01-22T02:14:27.124Z,36.20
2019-01-22T02:15:27.105Z,34.80
2019-01-22T02:16:27.089Z,34.60
2019-01-22T02:17:27.072Z,35.60
2019-01-22T02:18:27.051Z,33.70
2019-01-22T02:19:27.036Z,37.60
2019-01-22T02:20:27.021Z,36.30
2019-01-22T02:21:27.003Z,36.30
2019-01-22T02:22:26.984Z,36.80
2019-01-22T02:23:30.620Z,37.40
2019-01-22T02:24:26.950Z,35.50
2019-01-22T02:25:26.930Z,35.70
2019-01-22T02:26:26.913Z,35.20
2019-01-22T02:27:26.896Z,36.30
2019-01-22T02:28:26.880Z,34.50
2019-01-22T02:29:26.860Z,36.00
2019-01-22T02:30:26.846Z,36.10
2019-01-22T02:31:26.824Z,37.30
2019-01-22T02:32:27.766Z,34.80
2019-01-22T02:33:26.790Z,36.70
2019-01-22T02:34:26.777Z,36.30
2019-01-22T02:35:26.755Z,37.50
2019-01-22T02:36:26.737Z,37.20
2019-01-22T02:37:26.724Z,38.60
2019-01-22T02:38:26.728Z,36.10
2019-01-22T02:39:26.687Z,35.40
2019-01-22T02:40:26.667Z,35.50
2019-01-22T02:41:26.653Z,36.00
2019-01-22T02:42:26.638Z,35.70
2019-01-22T02:43:26.615Z,35.90
2019-01-22T02:44:26.598Z,37.00
2019-01-22T02:45:26.581Z,35.00
2019-01-22T02:46:26.563Z,35.20
2019-01-22T02:47:26.548Z,36.70
2019-01-22T02:48:26.528Z,36.20
2019-01-22T02:49:26.512Z,35.90
2019-01-22T02:50:26.494Z,35.80
2019-01-22T02:51:26.477Z,35.10
2019-01-22T02:52:26.457Z,36.90
2019-01-22T02:53:26.442Z,34.60
2019-01-22T02:54:26.424Z,34.30
2019-01-22T02:55:26.407Z,35.30
2019-01-22T02:56:26.392Z,34.50
2019-01-22T02:57:26.372Z,34.70
2019-01-22T02:58:26.354Z,35.20
2019-01-22T02:59:26.342Z,34.20
2019-01-22T03:00:26.323Z,36.00
2019-01-22T03:01:26.303Z,33.90
2019-01-22T03:02:26.286Z,35.50
2019-01-22T03:03:26.271Z,34.70
2019-01-22T03:04:26.252Z,32.60
2019-01-22T03:05:26.238Z,34.90
2019-01-22T03:06:26.216Z,33.20
2019-01-22T03:07:26.204Z,33.30
2019-01-22T03:08:26.182Z,34.00
2019-01-22T03:09:26.167Z,35.70
2019-01-22T03:10:26.147Z,34.30
2019-01-22T03:11:26.130Z,36.10
2019-01-22T03:12:26.111Z,34.70
2019-01-22T03:13:26.098Z,33.30
2019-01-22T03:14:26.079Z,36.10
2019-01-22T03:15:26.061Z,34.10
2019-01-22T03:16:26.042Z,34.80
2019-01-22T03:17:26.026Z,36.30
2019-01-22T03:18:26.010Z,34.10
2019-01-22T03:19:25.993Z,33.40
2019-01-22T03:20:25.975Z,34.40
2019-01-22T03:21:25.957Z,34.90
2019-01-22T03:22:25.944Z,34.60
2019-01-22T03:23:25.924Z,35.20
2019-01-22T03:24:25.904Z,34.10
2019-01-22T03:25:25.889Z,36.30
2019-01-22T03:26:25.871Z,35.10
2019-01-22T03:27:25.852Z,34.00
2019-01-22T03:28:25.835Z,34.80
2019-01-22T03:29:25.818Z,35.50
2019-01-22T03:30:25.802Z,36.10
2019-01-22T03:31:25.784Z,34.20
2019-01-22T03:32:25.772Z,35.60
2019-01-22T03:33:25.751Z,33.00
2019-01-22T03:34:25.735Z,33.80
2019-01-22T03:35:25.714Z,34.60
2019-01-22T03:36:25.694Z,36.30
2019-01-22T03:37:25.679Z,35.50
2019-01-22T03:38:25.663Z,36.80
2019-01-22T03:39:25.644Z,35.80
2019-01-22T03:40:25.627Z,35.30
2019-01-22T03:41:25.611Z,34.40
2019-01-22T03:42:25.593Z,34.90
2019-01-22T03:43:25.575Z,35.20
2019-01-22T03:44:25.561Z,34.20
2019-01-22T03:45:25.543Z,36.00
2019-01-22T03:46:25.512Z,35.90
2019-01-22T03:47:25.497Z,35.40
2019-01-22T03:48:25.490Z,36.70
2019-01-22T03:49:25.459Z,35.60
2019-01-22T03:50:25.421Z,34.40
2019-01-22T03:51:25.403Z,33.90
2019-01-22T03:52:25.384Z,35.50
2019-01-22T03:53:25.389Z,34.20
2019-01-22T03:54:25.352Z,32.80
2019-01-22T03:55:25.334Z,32.80
2019-01-22T03:56:25.314Z,37.00
2019-01-22T03:57:25.297Z,37.80
2019-01-22T03:58:25.280Z,35.30
2019-01-22T03:59:25.265Z,36.90
2019-01-22T04:00:25.246Z,36.60
2019-01-22T04:01:25.228Z,35.70
2019-01-22T04:02:25.212Z,35.00
2019-01-22T04:03:25.194Z,36.00
2019-01-22T04:04:25.174Z,33.40
2019-01-22T04:05:25.316Z,35.30
2019-01-22T04:06:25.141Z,34.30
2019-01-22T04:07:25.121Z,35.60
2019-01-22T04:08:25.103Z,36.30
2019-01-22T04:09:25.089Z,35.80
2019-01-22T04:10:25.070Z,35.10
2019-01-22T04:11:25.053Z,34.70
2019-01-22T04:12:25.033Z,36.90
2019-01-22T04:13:25.018Z,34.40
2019-01-22T04:14:24.998Z,35.90
2019-01-22T04:15:24.982Z,35.20
2019-01-22T04:16:24.966Z,36.20
2019-01-22T04:17:24.944Z,35.80
2019-01-22T04:18:24.932Z,33.40
2019-01-22T04:19:24.917Z,34.70
2019-01-22T04:20:24.894Z,33.90
2019-01-22T04:21:24.875Z,33.30
2019-01-22T04:22:24.858Z,36.60
2019-01-22T04:23:24.840Z,33.70
2019-01-22T04:24:24.822Z,35.90
2019-01-22T04:25:24.806Z,33.50
2019-01-22T04:26:24.790Z,34.30
2019-01-22T04:27:24.924Z,36.20
2019-01-22T04:28:24.754Z,34.50
2019-01-22T04:29:24.736Z,36.50
2019-01-22T04:30:24.718Z,34.20
2019-01-22T04:31:24.703Z,33.80
2019-01-22T04:32:24.682Z,34.60
2019-01-22T04:33:24.668Z,36.00
2019-01-22T04:34:24.649Z,35.90
2019-01-22T04:35:24.631Z,34.40
2019-01-22T04:36:24.615Z,34.20
2019-01-22T04:37:24.595Z,35.80
2019-01-22T04:38:24.582Z,35.60
2019-01-22T04:39:24.567Z,35.50
2019-01-22T04:40:24.544Z,34.60
2019-01-22T04:41:24.525Z,34.80
2019-01-22T04:42:24.513Z,35.20
2019-01-22T04:43:24.499Z,33.90
2019-01-22T04:44:24.476Z,34.30
2019-01-22T04:45:24.471Z,36.40
2019-01-22T04:46:24.441Z,33.70
2019-01-22T04:47:24.422Z,35.20
2019-01-22T04:48:24.403Z,34.10
2019-01-22T04:49:24.386Z,35.20
2019-01-22T04:50:24.375Z,36.70
2019-01-22T04:51:24.352Z,34.00
2019-01-22T04:52:24.334Z,36.70
2019-01-22T04:53:24.357Z,34.30
2019-01-22T04:54:24.302Z,34.00
2019-01-22T04:55:24.286Z,34.50
2019-01-22T04:56:24.267Z,34.20
2019-01-22T04:57:24.250Z,34.90
2019-01-22T04:58:24.232Z,36.10
2019-01-22T04:59:24.218Z,36.20
2019-01-22T05:00:24.197Z,36.40
2019-01-22T05:01:24.186Z,34.50
2019-01-22T05:02:24.162Z,35.10
2019-01-22T05:03:24.149Z,35.80
2019-01-22T05:04:24.127Z,33.60
2019-01-22T05:05:24.112Z,34.00
2019-01-22T05:06:24.093Z,33.50
2019-01-22T05:07:24.077Z,34.40
2019-01-22T05:08:24.059Z,34.00
2019-01-22T05:09:24.041Z,36.10
2019-01-22T05:10:24.024Z,34.90
2019-01-22T05:11:24.006Z,35.10
2019-01-22T05:12:23.989Z,35.00
2019-01-22T05:13:23.973Z,33.50
2019-01-22T05:14:23.954Z,33.80
2019-01-22T05:15:23.939Z,33.80
2019-01-22T05:16:23.917Z,32.70
2019-01-22T05:17:23.904Z,33.90
2019-01-22T05:18:23.885Z,35.70
2019-01-22T05:19:23.867Z,33.00
2019-01-22T05:20:23.850Z,32.90
2019-01-22T05:21:23.833Z,33.00
2019-01-22T05:22:23.817Z,35.60
2019-01-22T05:23:23.798Z,35.00
2019-01-22T05:24:23.783Z,34.30
2019-01-22T05:25:23.795Z,36.60
2019-01-22T05:26:23.749Z,32.80
2019-01-22T05:27:23.729Z,35.30
2019-01-22T05:28:23.711Z,34.20
2019-01-22T05:29:23.696Z,35.30
2019-01-22T05:30:23.676Z,34.40
2019-01-22T05:31:23.660Z,35.90
2019-01-22T05:32:23.641Z,33.70
2019-01-22T05:33:24.040Z,33.90
2019-01-22T05:34:23.608Z,34.40
2019-01-22T05:35:23.589Z,32.70
2019-01-22T05:36:23.574Z,34.40
2019-01-22T05:37:23.553Z,34.10
2019-01-22T05:38:23.538Z,35.30
2019-01-22T05:39:23.531Z,35.70
2019-01-22T05:40:23.503Z,34.60
2019-01-22T05:41:23.486Z,34.90
2019-01-22T05:42:23.469Z,33.80
2019-01-22T05:43:23.453Z,34.70
2019-01-22T05:44:23.434Z,34.20
2019-01-22T05:45:23.418Z,34.80
2019-01-22T05:46:23.401Z,34.50
2019-01-22T05:47:23.385Z,33.40
2019-01-22T05:48:23.366Z,35.40
2019-01-22T05:49:23.349Z,34.20
2019-01-22T05:50:23.329Z,33.10
2019-01-22T05:51:23.322Z,33.50
2019-01-22T05:52:23.295Z,33.00
2019-01-22T05:53:23.281Z,33.80
2019-01-22T05:54:25.372Z,34.30
2019-01-22T05:55:23.244Z,31.80
2019-01-22T05:56:23.227Z,32.00
2019-01-22T05:57:23.210Z,34.00
2019-01-22T05:58:23.198Z,35.20
2019-01-22T05:59:23.174Z,35.20
2019-01-22T06:00:23.163Z,33.60
2019-01-22T06:01:23.140Z,33.40
2019-01-22T06:02:23.127Z,33.40
2019-01-22T06:03:23.108Z,34.40
2019-01-22T06:04:23.087Z,34.60
2019-01-22T06:05:23.071Z,34.20
2019-01-22T06:06:23.057Z,35.60
2019-01-22T06:07:23.036Z,34.50
2019-01-22T06:08:23.017Z,34.00
2019-01-22T06:09:23.001Z,32.90
2019-01-22T06:10:22.985Z,32.50
2019-01-22T06:11:22.968Z,33.30
2019-01-22T06:12:22.950Z,35.00
2019-01-22T06:13:22.934Z,34.60
2019-01-22T06:14:22.915Z,34.90
2019-01-22T06:15:22.903Z,34.90
2019-01-22T06:16:22.883Z,33.60
2019-01-22T06:17:22.866Z,35.00
2019-01-22T06:18:22.861Z,34.90
2019-01-22T06:19:22.832Z,33.40
2019-01-22T06:20:22.813Z,35.40
2019-01-22T06:21:22.799Z,32.60
2019-01-22T06:22:22.780Z,32.40
2019-01-22T06:23:22.761Z,33.90
2019-01-22T06:24:22.743Z,31.80
2019-01-22T06:25:22.740Z,33.30
2019-01-22T06:26:22.709Z,33.50
2019-01-22T06:27:22.696Z,35.10
2019-01-22T06:28:22.677Z,33.20
2019-01-22T06:29:22.661Z,34.00
2019-01-22T06:30:22.641Z,33.10
2019-01-22T06:31:22.622Z,32.60
2019-01-22T06:32:22.605Z,35.20
2019-01-22T06:33:22.588Z,33.70
2019-01-22T06:34:22.577Z,33.70
2019-01-22T06:35:22.556Z,34.10
2019-01-22T06:36:22.535Z,32.90
2019-01-22T06:37:22.530Z,35.40
2019-01-22T06:38:22.499Z,31.20
2019-01-22T06:39:22.484Z,35.20
2019-01-22T06:40:22.466Z,33.90
2019-01-22T06:41:22.446Z,33.50
2019-01-22T06:42:22.431Z,33.50
2019-01-22T06:43:22.414Z,33.30
2019-01-22T06:44:22.394Z,33.90
2019-01-22T06:45:22.378Z,33.30
2019-01-22T06:46:22.361Z,34.70
2019-01-22T06:47:22.343Z,34.20
2019-01-22T06:48:22.325Z,33.60
2019-01-22T06:49:22.309Z,33.70
2019-01-22T06:50:22.291Z,31.90
2019-01-22T06:51:22.275Z,33.60
2019-01-22T06:52:22.258Z,33.20
2019-01-22T06:53:22.241Z,32.00
2019-01-22T06:54:22.221Z,34.90
2019-01-22T06:55:22.204Z,32.70
2019-01-22T06:56:22.189Z,35.40
2019-01-22T06:57:22.176Z,36.30
2019-01-22T06:58:22.157Z,33.40
2019-01-22T06:59:22.136Z,32.40
2019-01-22T07:00:22.118Z,35.10
2019-01-22T07:01:22.103Z,35.30
2019-01-22T07:02:22.085Z,34.80
2019-01-22T07:03:22.068Z,33.90
2019-01-22T07:04:22.048Z,34.20
2019-01-22T07:05:22.032Z,35.00
2019-01-22T07:06:22.014Z,36.20
2019-01-22T07:07:21.994Z,33.20
2019-01-22T07:08:21.981Z,35.00
2019-01-22T07:09:21.959Z,34.90
2019-01-22T07:10:21.942Z,35.60
2019-01-22T07:11:21.929Z,35.40
2019-01-22T07:12:21.909Z,36.20
2019-01-22T07:13:21.891Z,35.30
2019-01-22T07:14:21.874Z,35.40
2019-01-22T07:15:21.857Z,34.90
2019-01-22T07:16:21.838Z,35.00
2019-01-22T07:17:21.820Z,35.80
2019-01-22T07:18:21.805Z,34.60
2019-01-22T07:19:21.792Z,35.70
2019-01-22T07:20:21.767Z,34.60
2019-01-22T07:21:21.751Z,33.70
2019-01-22T07:22:21.737Z,35.30
2019-01-22T07:23:21.719Z,34.80
2019-01-22T07:24:21.698Z,34.30
2019-01-22T07:25:21.684Z,32.90
2019-01-22T07:26:21.663Z,35.40
2019-01-22T07:27:21.649Z,34.70
2019-01-22T07:28:21.631Z,34.10
2019-01-22T07:29:21.612Z,36.20
2019-01-22T07:30:21.595Z,34.40
2019-01-22T07:31:21.579Z,35.10
2019-01-22T07:32:21.561Z,35.40
2019-01-22T07:33:21.548Z,33.80
2019-01-22T07:34:21.527Z,33.30
2019-01-22T07:35:21.510Z,33.60
2019-01-22T07:36:21.490Z,33.30
2019-01-22T07:37:21.473Z,33.30
2019-01-22T07:38:21.458Z,32.80
2019-01-22T07:39:21.440Z,33.40
2019-01-22T07:40:21.422Z,34.80
2019-01-22T07:41:21.406Z,34.70
2019-01-22T07:42:21.388Z,34.70
2019-01-22T07:43:21.370Z,33.10
2019-01-22T07:44:21.350Z,33.90
2019-01-22T07:45:21.335Z,33.90
2019-01-22T07:46:21.318Z,35.50
2019-01-22T07:47:21.300Z,34.20
2019-01-22T07:48:21.283Z,34.70
2019-01-22T07:49:21.264Z,33.10
2019-01-22T07:50:21.248Z,35.80
2019-01-22T07:51:21.230Z,34.90
2019-01-22T07:52:21.211Z,36.40
2019-01-22T07:53:21.200Z,36.80
2019-01-22T07:54:21.177Z,35.60
2019-01-22T07:55:21.164Z,36.50
2019-01-22T07:56:21.141Z,36.40
2019-01-22T07:57:21.126Z,34.40
2019-01-22T07:58:21.107Z,34.50
2019-01-22T07:59:21.090Z,35.40
2019-01-22T08:00:21.074Z,35.20
2019-01-22T08:01:21.057Z,35.20
2019-01-22T08:02:21.037Z,33.40
2019-01-22T08:03:21.023Z,35.60
2019-01-22T08:04:21.007Z,37.20
2019-01-22T08:05:21.000Z,35.30
2019-01-22T08:06:20.971Z,35.90
2019-01-22T08:07:20.957Z,34.90
2019-01-22T08:08:20.939Z,34.30
2019-01-22T08:09:20.921Z,36.00
2019-01-22T08:10:20.903Z,36.50
2019-01-22T08:11:20.887Z,36.70
2019-01-22T08:12:20.871Z,34.90
2019-01-22T08:13:20.852Z,35.70
2019-01-22T08:14:20.833Z,35.10
2019-01-22T08:15:20.814Z,35.30
2019-01-22T08:16:20.795Z,36.30
2019-01-22T08:17:20.778Z,35.50
2019-01-22T08:18:20.762Z,35.90
2019-01-22T08:19:20.745Z,34.40
2019-01-22T08:20:20.725Z,37.20
2019-01-22T08:21:20.708Z,35.50
2019-01-22T08:22:20.693Z,34.00
2019-01-22T08:23:20.675Z,34.80
2019-01-22T08:24:20.657Z,36.70
2019-01-22T08:25:20.649Z,36.00
2019-01-22T08:26:20.621Z,36.00
2019-01-22T08:27:20.610Z,37.60
2019-01-22T08:28:20.587Z,37.60
2019-01-22T08:29:20.570Z,37.40
2019-01-22T08:30:20.552Z,36.00
2019-01-22T08:31:20.537Z,36.30
2019-01-22T08:32:20.518Z,36.00
2019-01-22T08:33:20.502Z,35.20
2019-01-22T08:34:20.486Z,35.00
2019-01-22T08:35:20.465Z,35.00
2019-01-22T08:36:20.450Z,35.00
2019-01-22T08:37:20.430Z,35.10
2019-01-22T08:38:20.416Z,34.00
2019-01-22T08:39:20.396Z,33.60
2019-01-22T08:40:20.381Z,35.50
2019-01-22T08:41:20.363Z,34.00
2019-01-22T08:42:20.345Z,35.00
2019-01-22T08:43:20.326Z,34.40
2019-01-22T08:44:20.309Z,33.90
2019-01-22T08:45:20.292Z,35.00
2019-01-22T08:46:20.275Z,34.60
2019-01-22T08:47:20.258Z,36.60
2019-01-22T08:48:20.239Z,36.70
2019-01-22T08:49:20.222Z,35.60
2019-01-22T08:50:20.207Z,34.90
2019-01-22T08:51:20.187Z,34.60
2019-01-22T08:52:20.171Z,36.50
2019-01-22T08:53:20.152Z,36.50
2019-01-22T08:54:20.178Z,35.80
2019-01-22T08:55:20.118Z,36.00
2019-01-22T08:56:20.102Z,37.20
2019-01-22T08:57:20.085Z,36.60
2019-01-22T08:58:20.068Z,35.00
2019-01-22T08:59:20.049Z,36.30
2019-01-22T09:00:20.034Z,35.60
2019-01-22T09:01:20.016Z,35.30
2019-01-22T09:02:20.002Z,36.50
2019-01-22T09:03:19.979Z,36.80
2019-01-22T09:04:19.961Z,35.00
2019-01-22T09:05:19.944Z,35.50
2019-01-22T09:06:19.927Z,33.60
2019-01-22T09:07:19.910Z,35.60
2019-01-22T09:08:19.896Z,36.40
2019-01-22T09:09:19.874Z,35.40
2019-01-22T09:10:19.860Z,33.50
2019-01-22T09:11:19.843Z,34.50
2019-01-22T09:12:19.826Z,35.20
2019-01-22T09:13:19.806Z,33.40
2019-01-22T09:14:19.789Z,33.40
2019-01-22T09:15:19.772Z,34.90
2019-01-22T09:16:19.753Z,34.10
2019-01-22T09:17:19.737Z,35.60
2019-01-22T09:18:19.720Z,33.30
2019-01-22T09:19:19.704Z,33.80
2019-01-22T09:20:19.684Z,33.90
2019-01-22T09:21:19.668Z,35.10
2019-01-22T09:22:19.653Z,34.60
2019-01-22T09:23:19.634Z,34.90
2019-01-22T09:24:19.614Z,34.50
2019-01-22T09:25:19.600Z,35.00
2019-01-22T09:26:19.588Z,33.10
2019-01-22T09:27:19.566Z,36.10
2019-01-22T09:28:19.549Z,34.60
2019-01-22T09:29:19.531Z,35.00
2019-01-22T09:30:19.516Z,35.70
2019-01-22T09:31:19.502Z,36.00
2019-01-22T09:32:19.483Z,34.60
2019-01-22T09:33:19.466Z,34.90
2019-01-22T09:34:19.448Z,33.90
2019-01-22T09:35:19.432Z,34.50
2019-01-22T09:36:19.413Z,34.30
2019-01-22T09:37:19.399Z,36.30
2019-01-22T09:38:19.380Z,35.80
2019-01-22T09:39:19.361Z,36.00
2019-01-22T09:40:19.345Z,35.20
2019-01-22T09:41:19.325Z,33.80
2019-01-22T09:42:19.310Z,34.60
2019-01-22T09:43:19.291Z,36.70
2019-01-22T09:44:19.275Z,35.00
2019-01-22T09:45:19.257Z,36.10
2019-01-22T09:46:19.241Z,36.20
2019-01-22T09:47:19.224Z,34.70
2019-01-22T09:48:19.210Z,36.30
2019-01-22T09:49:19.190Z,35.10
2019-01-22T09:50:19.173Z,35.30
2019-01-22T09:51:19.161Z,34.20
2019-01-22T09:52:19.138Z,35.90
2019-01-22T09:53:19.123Z,35.40
2019-01-22T09:54:19.104Z,36.40
2019-01-22T09:55:22.573Z,35.90
2019-01-22T09:56:19.069Z,35.30
2019-01-22T09:57:19.051Z,34.00
2019-01-22T09:58:19.036Z,33.70
2019-01-22T09:59:19.018Z,36.00
2019-01-22T10:00:18.999Z,33.70
2019-01-22T10:01:18.985Z,33.70
2019-01-22T10:02:18.966Z,34.30
2019-01-22T10:03:18.950Z,34.90
2019-01-22T10:04:18.931Z,35.40
2019-01-22T10:05:18.917Z,35.10
2019-01-22T10:06:18.896Z,35.30
2019-01-22T10:07:18.881Z,34.60
2019-01-22T10:08:18.864Z,35.60
2019-01-22T10:09:18.846Z,34.00
2019-01-22T10:10:18.831Z,34.90
2019-01-22T10:11:18.816Z,33.70
2019-01-22T10:12:18.797Z,33.60
2019-01-22T10:13:18.778Z,34.00
2019-01-22T10:14:18.762Z,36.60
2019-01-22T10:15:18.745Z,35.50
2019-01-22T10:16:18.732Z,34.80
2019-01-22T10:17:18.710Z,34.80
2019-01-22T10:18:18.696Z,36.20
2019-01-22T10:19:18.677Z,36.40
2019-01-22T10:20:18.662Z,36.20
2019-01-22T10:21:18.642Z,35.30
2019-01-22T10:22:18.629Z,35.30
2019-01-22T10:23:18.614Z,33.10
2019-01-22T10:24:18.610Z,35.30
2019-01-22T10:25:18.578Z,34.90
2019-01-22T10:26:18.560Z,34.40
2019-01-22T10:27:18.549Z,35.30
2019-01-22T10:28:18.523Z,34.80
2019-01-22T10:29:18.505Z,35.60
2019-01-22T10:30:18.490Z,33.90
2019-01-22T10:31:18.476Z,32.90
2019-01-22T10:32:18.456Z,33.50
2019-01-22T10:33:18.439Z,33.30
2019-01-22T10:34:18.423Z,34.60
2019-01-22T10:35:18.406Z,33.90
2019-01-22T10:36:18.388Z,35.40
2019-01-22T10:37:18.371Z,33.90
2019-01-22T10:38:18.354Z,35.60
2019-01-22T10:39:18.339Z,36.30
2019-01-22T10:40:18.321Z,33.40
2019-01-22T10:41:18.305Z,34.50
2019-01-22T10:42:18.290Z,36.80
2019-01-22T10:43:18.276Z,33.00
2019-01-22T10:44:18.254Z,33.50
2019-01-22T10:45:18.236Z,34.90
2019-01-22T10:46:18.220Z,35.60
2019-01-22T10:47:18.206Z,35.60
2019-01-22T10:48:18.187Z,37.30
2019-01-22T10:49:18.169Z,34.40
2019-01-22T10:50:18.153Z,34.40
2019-01-22T10:51:18.136Z,34.40
2019-01-22T10:52:18.119Z,34.20
2019-01-22T10:53:18.106Z,34.80
2019-01-22T10:54:18.085Z,36.10
2019-01-22T10:55:18.071Z,36.30
2019-01-22T10:56:18.051Z,36.50
2019-01-22T10:57:18.037Z,34.90
2019-01-22T10:58:18.019Z,34.70
2019-01-22T10:59:18.001Z,37.60
2019-01-22T11:00:17.985Z,34.70
2019-01-22T11:01:17.967Z,35.70
2019-01-22T11:02:17.953Z,36.20
2019-01-22T11:03:17.934Z,36.50
2019-01-22T11:04:17.919Z,36.20
2019-01-22T11:05:17.902Z,35.70
2019-01-22T11:06:17.885Z,35.00
2019-01-22T11:07:17.867Z,36.20
2019-01-22T11:08:17.849Z,36.40
2019-01-22T11:09:17.833Z,36.80
2019-01-22T11:10:17.817Z,33.70
2019-01-22T11:11:17.801Z,34.80
2019-01-22T11:12:17.781Z,34.20
2019-01-22T11:13:17.768Z,35.70
2019-01-22T11:14:17.748Z,35.60
2019-01-22T11:15:17.733Z,35.10
2019-01-22T11:16:17.717Z,35.10
2019-01-22T11:17:17.697Z,34.20
2019-01-22T11:18:17.691Z,33.80
2019-01-22T11:19:17.669Z,33.40
2019-01-22T11:20:17.676Z,34.60
2019-01-22T11:21:17.635Z,34.50
2019-01-22T11:22:17.616Z,33.90
2019-01-22T11:23:17.600Z,34.00
2019-01-22T11:24:17.583Z,32.90
2019-01-22T11:25:17.568Z,33.10
2019-01-22T11:26:17.552Z,34.20
2019-01-22T11:27:17.536Z,33.20
2019-01-22T11:28:17.515Z,33.60
2019-01-22T11:29:17.498Z,33.40
2019-01-22T11:30:17.483Z,33.90
2019-01-22T11:31:17.467Z,33.70
2019-01-22T11:32:17.448Z,32.70
2019-01-22T11:33:17.431Z,32.20
2019-01-22T11:34:17.423Z,33.20
2019-01-22T11:35:17.409Z,30.60
2019-01-22T11:36:17.382Z,32.20
2019-01-22T11:37:17.367Z,31.10
2019-01-22T11:38:17.349Z,32.90
2019-01-22T11:39:17.334Z,32.00
2019-01-22T11:40:17.313Z,32.10
2019-01-22T11:41:17.302Z,31.70
2019-01-22T11:42:17.284Z,30.60
2019-01-22T11:43:17.266Z,31.40
2019-01-22T11:44:17.249Z,31.20
2019-01-22T11:45:17.231Z,30.90
2019-01-22T11:46:17.213Z,31.40
2019-01-22T11:47:17.198Z,31.40
2019-01-22T11:48:17.182Z,30.30
2019-01-22T11:49:23.224Z,30.40
2019-01-22T11:50:17.146Z,29.80
2019-01-22T11:51:17.131Z,31.50
2019-01-22T11:52:17.115Z,31.50
2019-01-22T11:53:17.098Z,30.20
2019-01-22T11:54:17.080Z,30.20
2019-01-22T11:55:17.066Z,29.40
2019-01-22T11:56:17.047Z,30.30
2019-01-22T11:57:17.030Z,28.40
2019-01-22T11:58:17.015Z,29.30
2019-01-22T11:59:16.997Z,29.40
2019-01-22T12:00:16.980Z,30.80
2019-01-22T12:01:16.966Z,31.70
2019-01-22T12:02:16.950Z,29.60
2019-01-22T12:03:16.930Z,31.10
2019-01-22T12:04:16.913Z,29.80
2019-01-22T12:05:16.899Z,29.50
2019-01-22T12:06:16.884Z,30.20
2019-01-22T12:07:16.866Z,30.10
2019-01-22T12:08:16.848Z,30.00
2019-01-22T12:09:16.829Z,29.70
2019-01-22T12:10:16.813Z,29.30
2019-01-22T12:11:16.802Z,30.00
2019-01-22T12:12:16.780Z,27.50
2019-01-22T12:13:16.764Z,28.80
2019-01-22T12:14:16.747Z,29.10
2019-01-22T12:15:16.731Z,29.30
2019-01-22T12:16:16.714Z,28.80
2019-01-22T12:17:16.697Z,29.00
2019-01-22T12:18:16.681Z,29.50
2019-01-22T12:19:16.665Z,30.40
2019-01-22T12:20:16.649Z,29.10
2019-01-22T12:21:16.633Z,29.10
2019-01-22T12:22:16.613Z,29.10
2019-01-22T12:23:16.597Z,30.20
2019-01-22T12:24:16.580Z,28.10
2019-01-22T12:25:16.564Z,29.70
2019-01-22T12:26:16.550Z,29.20
2019-01-22T12:27:16.534Z,29.40
2019-01-22T12:28:16.518Z,28.40
2019-01-22T12:29:16.498Z,28.90
2019-01-22T12:30:16.482Z,28.30
2019-01-22T12:31:16.467Z,29.60
2019-01-22T12:32:16.450Z,28.90
2019-01-22T12:33:16.434Z,30.80
2019-01-22T12:34:16.415Z,29.70
2019-01-22T12:35:16.402Z,29.60
2019-01-22T12:36:16.383Z,29.80
2019-01-22T12:37:16.366Z,30.40
2019-01-22T12:38:16.348Z,29.50
2019-01-22T12:39:16.332Z,30.70
2019-01-22T12:40:16.318Z,30.00
2019-01-22T12:41:16.299Z,29.90
2019-01-22T12:42:16.284Z,29.90
2019-01-22T12:43:16.266Z,31.20
2019-01-22T12:44:16.249Z,30.10
2019-01-22T12:45:16.235Z,28.50
2019-01-22T12:46:16.216Z,31.30
2019-01-22T12:47:16.200Z,30.40
2019-01-22T12:48:16.182Z,29.90
2019-01-22T12:49:16.167Z,29.30
2019-01-22T12:50:16.149Z,29.80
2019-01-22T12:51:16.137Z,29.80
2019-01-22T12:52:16.116Z,28.30